Pagrindinis puslapis
METAR-TAF:

METAR-TAF

Oro uostai :

Nadžafas, Irakas

platuma: 31-59-23N, ilguma: 44-24-15E, Aukštis: 31 m

Dabartinis oras

Ataskaita buvo paskelbta 15 minutes, ne 10:00 UTC
Vėjas 5 kt iš Šiaurės Vakarų
Temperatūra 37°C
Drėgmė 18%
Slėgis 1016 hPa
Matomumas: 8000 m

METAR: ORNI 141000Z 32005KT 8000 NSC 37/09 Q1016 NOSIG

Laikas: 13:15 (10:15 UTC)

Prognozė

Ataskaita buvo paskelbta 6 valandos ir 15 minutes, ne 04:00 UTC
Prognozė galioja nuo 14 metu 06 UTC su 15 metu 06 UTC
Vėjas 8 kt iš Šiaurės/Šiaurės Vakarų
Matomumas: 8000 m

TAF: ORNI 140400Z 1406/1506 33008KT 8000 NSC

Orai ataskaitas ir orų prognozės (METAR, TAF).

turimą stotys yra geltonos ir raudonos taškus žemėlapyje.

Perkelti pele per norėdami pamatyti stoties vardą.

Tada spustelėkite, norėdami matyti oro stebėjimo ir prognozės.

Norėdami pakeisti žemėlapį: spustelėkite ant žalios mygtukų su juodo kryžiaus žemyn,; žalią mygtuką su brūkšneliu, jei norite nutolinti; arba žalių rodyklių gretimoms žemėlapius.


METAR-TAF: